<?xml version="1.0" encoding="UTF-8" standalone="no" ?>
<gpx xmlns="http://www.topografix.com/GPX/1/1" xmlns:xsi="http://www.w3.org/2001/XMLSchema-instance" xsi:schemaLocation="http://www.topografix.com/GPX/1/1 http://www.topografix.com/GPX/1/1/gpx.xsd" version="1.1" creator="VisuGPX - https://www.visugpx.com">
  <metadata>
    <name> bois des bellugues le muy</name>
    <desc><![CDATA[marche au muy  facilea effectuer tous les jours]]></desc>
  </metadata>
  <trk>
    <name><![CDATA[24 avr. 2012 07:49:35]]></name>
    <cmt><![CDATA[24 avr. 2012 07:49:35]]></cmt>
    <trkseg>
      <trkpt lat="43.47226" lon="6.57883">
        <ele>6</ele>
        <time>2012-04-24T05:49:51Z</time>
      </trkpt>
      <trkpt lat="43.47246" lon="6.57874">
        <ele>8</ele>
        <time>2012-04-24T05:58:09Z</time>
      </trkpt>
      <trkpt lat="43.47253" lon="6.57912">
        <ele>9</ele>
        <time>2012-04-24T05:59:46Z</time>
      </trkpt>
      <trkpt lat="43.47263" lon="6.57963">
        <ele>10</ele>
        <time>2012-04-24T06:01:08Z</time>
      </trkpt>
      <trkpt lat="43.47269" lon="6.57989">
        <ele>3</ele>
        <time>2012-04-24T06:01:22Z</time>
      </trkpt>
      <trkpt lat="43.47265" lon="6.58022">
        <ele>4</ele>
        <time>2012-04-24T06:01:52Z</time>
      </trkpt>
      <trkpt lat="43.47264" lon="6.58078">
        <ele>-2</ele>
        <time>2012-04-24T06:02:31Z</time>
      </trkpt>
      <trkpt lat="43.47271" lon="6.58099">
        <ele>43</ele>
        <time>2012-04-24T06:02:57Z</time>
      </trkpt>
      <trkpt lat="43.4729" lon="6.58105">
        <ele>-4</ele>
        <time>2012-04-24T06:03:23Z</time>
      </trkpt>
      <trkpt lat="43.47319" lon="6.58102">
        <ele>-8</ele>
        <time>2012-04-24T06:03:57Z</time>
      </trkpt>
      <trkpt lat="43.47336" lon="6.58106">
        <ele>-7</ele>
        <time>2012-04-24T06:04:16Z</time>
      </trkpt>
      <trkpt lat="43.47348" lon="6.58123">
        <ele>-2</ele>
        <time>2012-04-24T06:04:38Z</time>
      </trkpt>
      <trkpt lat="43.47364" lon="6.58143">
        <ele>-1</ele>
        <time>2012-04-24T06:05:00Z</time>
      </trkpt>
      <trkpt lat="43.4738" lon="6.58156">
        <ele>7</ele>
        <time>2012-04-24T06:05:19Z</time>
      </trkpt>
      <trkpt lat="43.47397" lon="6.58156">
        <ele>18</ele>
        <time>2012-04-24T06:05:36Z</time>
      </trkpt>
      <trkpt lat="43.47415" lon="6.58157">
        <ele>14</ele>
        <time>2012-04-24T06:05:49Z</time>
      </trkpt>
      <trkpt lat="43.47442" lon="6.58165">
        <ele>16</ele>
        <time>2012-04-24T06:06:22Z</time>
      </trkpt>
      <trkpt lat="43.47457" lon="6.58171">
        <ele>18</ele>
        <time>2012-04-24T06:06:34Z</time>
      </trkpt>
      <trkpt lat="43.47472" lon="6.58191">
        <ele>16</ele>
        <time>2012-04-24T06:06:49Z</time>
      </trkpt>
      <trkpt lat="43.47485" lon="6.58211">
        <ele>14</ele>
        <time>2012-04-24T06:07:01Z</time>
      </trkpt>
      <trkpt lat="43.47483" lon="6.58234">
        <ele>17</ele>
        <time>2012-04-24T06:07:17Z</time>
      </trkpt>
      <trkpt lat="43.47476" lon="6.5828">
        <ele>14</ele>
        <time>2012-04-24T06:07:41Z</time>
      </trkpt>
      <trkpt lat="43.47478" lon="6.58296">
        <ele>10</ele>
        <time>2012-04-24T06:08:07Z</time>
      </trkpt>
      <trkpt lat="43.47505" lon="6.58348">
        <ele>12</ele>
        <time>2012-04-24T06:08:55Z</time>
      </trkpt>
      <trkpt lat="43.47509" lon="6.58363">
        <ele>12</ele>
        <time>2012-04-24T06:09:08Z</time>
      </trkpt>
      <trkpt lat="43.47512" lon="6.58375">
        <ele>11</ele>
        <time>2012-04-24T06:09:17Z</time>
      </trkpt>
      <trkpt lat="43.47515" lon="6.5839">
        <ele>11</ele>
        <time>2012-04-24T06:09:28Z</time>
      </trkpt>
      <trkpt lat="43.47515" lon="6.58405">
        <ele>8</ele>
        <time>2012-04-24T06:09:43Z</time>
      </trkpt>
      <trkpt lat="43.47522" lon="6.58429">
        <ele>9</ele>
        <time>2012-04-24T06:10:06Z</time>
      </trkpt>
      <trkpt lat="43.47528" lon="6.58438">
        <ele>9</ele>
        <time>2012-04-24T06:10:15Z</time>
      </trkpt>
      <trkpt lat="43.47532" lon="6.58456">
        <ele>8</ele>
        <time>2012-04-24T06:10:31Z</time>
      </trkpt>
      <trkpt lat="43.47532" lon="6.58519">
        <ele>15</ele>
        <time>2012-04-24T06:11:14Z</time>
      </trkpt>
      <trkpt lat="43.47533" lon="6.58546">
        <ele>15</ele>
        <time>2012-04-24T06:11:32Z</time>
      </trkpt>
      <trkpt lat="43.47549" lon="6.58578">
        <ele>14</ele>
        <time>2012-04-24T06:12:10Z</time>
      </trkpt>
      <trkpt lat="43.47557" lon="6.58581">
        <ele>11</ele>
        <time>2012-04-24T06:12:29Z</time>
      </trkpt>
      <trkpt lat="43.47593" lon="6.58563">
        <ele>18</ele>
        <time>2012-04-24T06:13:06Z</time>
      </trkpt>
      <trkpt lat="43.47609" lon="6.58485">
        <ele>41</ele>
        <time>2012-04-24T06:14:06Z</time>
      </trkpt>
      <trkpt lat="43.47625" lon="6.58479">
        <ele>36</ele>
        <time>2012-04-24T06:14:18Z</time>
      </trkpt>
      <trkpt lat="43.47643" lon="6.58468">
        <ele>39</ele>
        <time>2012-04-24T06:14:44Z</time>
      </trkpt>
      <trkpt lat="43.4769" lon="6.58425">
        <ele>24</ele>
        <time>2012-04-24T06:15:45Z</time>
      </trkpt>
      <trkpt lat="43.47708" lon="6.58391">
        <ele>19</ele>
        <time>2012-04-24T06:16:15Z</time>
      </trkpt>
      <trkpt lat="43.47716" lon="6.58367">
        <ele>23</ele>
        <time>2012-04-24T06:16:38Z</time>
      </trkpt>
      <trkpt lat="43.47722" lon="6.58341">
        <ele>18</ele>
        <time>2012-04-24T06:17:01Z</time>
      </trkpt>
      <trkpt lat="43.47735" lon="6.58325">
        <ele>18</ele>
        <time>2012-04-24T06:17:24Z</time>
      </trkpt>
      <trkpt lat="43.47752" lon="6.58321">
        <ele>22</ele>
        <time>2012-04-24T06:17:48Z</time>
      </trkpt>
      <trkpt lat="43.47753" lon="6.58333">
        <ele>17</ele>
        <time>2012-04-24T06:17:57Z</time>
      </trkpt>
      <trkpt lat="43.4775" lon="6.58353">
        <ele>18</ele>
        <time>2012-04-24T06:18:12Z</time>
      </trkpt>
      <trkpt lat="43.47743" lon="6.58391">
        <ele>18</ele>
        <time>2012-04-24T06:18:43Z</time>
      </trkpt>
      <trkpt lat="43.47736" lon="6.58422">
        <ele>15</ele>
        <time>2012-04-24T06:19:15Z</time>
      </trkpt>
      <trkpt lat="43.47731" lon="6.58444">
        <ele>20</ele>
        <time>2012-04-24T06:19:38Z</time>
      </trkpt>
      <trkpt lat="43.47727" lon="6.58503">
        <ele>25</ele>
        <time>2012-04-24T06:20:25Z</time>
      </trkpt>
      <trkpt lat="43.47716" lon="6.58525">
        <ele>20</ele>
        <time>2012-04-24T06:20:53Z</time>
      </trkpt>
      <trkpt lat="43.47714" lon="6.58559">
        <ele>16</ele>
        <time>2012-04-24T06:21:56Z</time>
      </trkpt>
      <trkpt lat="43.4771" lon="6.58576">
        <ele>17</ele>
        <time>2012-04-24T06:22:11Z</time>
      </trkpt>
      <trkpt lat="43.47701" lon="6.58594">
        <ele>12</ele>
        <time>2012-04-24T06:22:28Z</time>
      </trkpt>
      <trkpt lat="43.47691" lon="6.58612">
        <ele>12</ele>
        <time>2012-04-24T06:22:47Z</time>
      </trkpt>
      <trkpt lat="43.4768" lon="6.58642">
        <ele>14</ele>
        <time>2012-04-24T06:23:16Z</time>
      </trkpt>
      <trkpt lat="43.47674" lon="6.58652">
        <ele>16</ele>
        <time>2012-04-24T06:23:25Z</time>
      </trkpt>
      <trkpt lat="43.47656" lon="6.58686">
        <ele>12</ele>
        <time>2012-04-24T06:23:56Z</time>
      </trkpt>
      <trkpt lat="43.47647" lon="6.58699">
        <ele>12</ele>
        <time>2012-04-24T06:24:08Z</time>
      </trkpt>
      <trkpt lat="43.47634" lon="6.58715">
        <ele>13</ele>
        <time>2012-04-24T06:24:19Z</time>
      </trkpt>
      <trkpt lat="43.47622" lon="6.58722">
        <ele>11</ele>
        <time>2012-04-24T06:24:32Z</time>
      </trkpt>
      <trkpt lat="43.47597" lon="6.58719">
        <ele>4</ele>
        <time>2012-04-24T06:25:03Z</time>
      </trkpt>
      <trkpt lat="43.47587" lon="6.58717">
        <ele>4</ele>
        <time>2012-04-24T06:25:14Z</time>
      </trkpt>
      <trkpt lat="43.47577" lon="6.58717">
        <ele>5</ele>
        <time>2012-04-24T06:25:27Z</time>
      </trkpt>
      <trkpt lat="43.47568" lon="6.58723">
        <ele>7</ele>
        <time>2012-04-24T06:25:37Z</time>
      </trkpt>
      <trkpt lat="43.47553" lon="6.58733">
        <ele>5</ele>
        <time>2012-04-24T06:25:54Z</time>
      </trkpt>
      <trkpt lat="43.47515" lon="6.58751">
        <ele>12</ele>
        <time>2012-04-24T06:26:36Z</time>
      </trkpt>
      <trkpt lat="43.475" lon="6.58729">
        <ele>13</ele>
        <time>2012-04-24T06:26:59Z</time>
      </trkpt>
      <trkpt lat="43.47491" lon="6.58697">
        <ele>15</ele>
        <time>2012-04-24T06:27:23Z</time>
      </trkpt>
      <trkpt lat="43.47491" lon="6.5867">
        <ele>14</ele>
        <time>2012-04-24T06:27:40Z</time>
      </trkpt>
      <trkpt lat="43.47487" lon="6.58653">
        <ele>12</ele>
        <time>2012-04-24T06:27:54Z</time>
      </trkpt>
      <trkpt lat="43.47488" lon="6.58619">
        <ele>15</ele>
        <time>2012-04-24T06:28:30Z</time>
      </trkpt>
      <trkpt lat="43.47486" lon="6.58597">
        <ele>14</ele>
        <time>2012-04-24T06:28:43Z</time>
      </trkpt>
      <trkpt lat="43.47487" lon="6.58574">
        <ele>16</ele>
        <time>2012-04-24T06:28:59Z</time>
      </trkpt>
      <trkpt lat="43.47483" lon="6.58556">
        <ele>15</ele>
        <time>2012-04-24T06:29:13Z</time>
      </trkpt>
      <trkpt lat="43.4748" lon="6.5854">
        <ele>17</ele>
        <time>2012-04-24T06:29:26Z</time>
      </trkpt>
      <trkpt lat="43.47474" lon="6.5851">
        <ele>12</ele>
        <time>2012-04-24T06:29:40Z</time>
      </trkpt>
      <trkpt lat="43.47479" lon="6.58489">
        <ele>8</ele>
        <time>2012-04-24T06:30:07Z</time>
      </trkpt>
      <trkpt lat="43.47483" lon="6.58468">
        <ele>7</ele>
        <time>2012-04-24T06:30:26Z</time>
      </trkpt>
      <trkpt lat="43.47477" lon="6.58433">
        <ele>4</ele>
        <time>2012-04-24T06:30:48Z</time>
      </trkpt>
      <trkpt lat="43.47471" lon="6.5841">
        <ele>-3</ele>
        <time>2012-04-24T06:31:05Z</time>
      </trkpt>
      <trkpt lat="43.47469" lon="6.58381">
        <ele>5</ele>
        <time>2012-04-24T06:31:22Z</time>
      </trkpt>
      <trkpt lat="43.47463" lon="6.58357">
        <ele>3</ele>
        <time>2012-04-24T06:31:42Z</time>
      </trkpt>
      <trkpt lat="43.47462" lon="6.58328">
        <ele>3</ele>
        <time>2012-04-24T06:32:04Z</time>
      </trkpt>
      <trkpt lat="43.47459" lon="6.58305">
        <ele>7</ele>
        <time>2012-04-24T06:32:21Z</time>
      </trkpt>
      <trkpt lat="43.47446" lon="6.583">
        <ele>10</ele>
        <time>2012-04-24T06:32:34Z</time>
      </trkpt>
      <trkpt lat="43.47437" lon="6.58302">
        <ele>11</ele>
        <time>2012-04-24T06:32:44Z</time>
      </trkpt>
      <trkpt lat="43.47429" lon="6.58306">
        <ele>9</ele>
        <time>2012-04-24T06:32:55Z</time>
      </trkpt>
      <trkpt lat="43.47422" lon="6.58309">
        <ele>15</ele>
        <time>2012-04-24T06:33:21Z</time>
      </trkpt>
      <trkpt lat="43.47379" lon="6.58287">
        <ele>19</ele>
        <time>2012-04-24T06:35:18Z</time>
      </trkpt>
      <trkpt lat="43.47363" lon="6.58275">
        <ele>19</ele>
        <time>2012-04-24T06:35:26Z</time>
      </trkpt>
      <trkpt lat="43.47329" lon="6.58232">
        <ele>13</ele>
        <time>2012-04-24T06:35:58Z</time>
      </trkpt>
      <trkpt lat="43.47316" lon="6.58213">
        <ele>12</ele>
        <time>2012-04-24T06:36:11Z</time>
      </trkpt>
      <trkpt lat="43.47307" lon="6.58189">
        <ele>6</ele>
        <time>2012-04-24T06:36:38Z</time>
      </trkpt>
      <trkpt lat="43.47301" lon="6.58166">
        <ele>7</ele>
        <time>2012-04-24T06:36:48Z</time>
      </trkpt>
      <trkpt lat="43.47281" lon="6.58118">
        <ele>44.4</ele>
        <time>2012-04-24T06:37:18Z</time>
      </trkpt>
      <trkpt lat="43.4727" lon="6.581">
        <ele>2</ele>
        <time>2012-04-24T06:37:26Z</time>
      </trkpt>
      <trkpt lat="43.47263" lon="6.5808">
        <ele>41.8</ele>
        <time>2012-04-24T06:37:42Z</time>
      </trkpt>
      <trkpt lat="43.47264" lon="6.58055">
        <ele>42</ele>
        <time>2012-04-24T06:38:00Z</time>
      </trkpt>
      <trkpt lat="43.4727" lon="6.58001">
        <ele>-6</ele>
        <time>2012-04-24T06:38:47Z</time>
      </trkpt>
      <trkpt lat="43.47271" lon="6.57972">
        <ele>-5</ele>
        <time>2012-04-24T06:39:13Z</time>
      </trkpt>
      <trkpt lat="43.4726" lon="6.57937">
        <ele>-5</ele>
        <time>2012-04-24T06:39:29Z</time>
      </trkpt>
      <trkpt lat="43.47256" lon="6.57921">
        <ele>2</ele>
        <time>2012-04-24T06:39:55Z</time>
      </trkpt>
    </trkseg>
  </trk>
  <trk>
    <name><![CDATA[24 avr. 2012 07:49:46]]></name>
    <cmt><![CDATA[24 avr. 2012 07:49:46]]></cmt>
    <trkseg>
      <trkpt lat="45.00028" lon="0">
        <ele>37</ele>
      </trkpt>
    </trkseg>
  </trk>
</gpx>